sensor_id;sensor_type;location;lat;lon;timestamp;temperature;humidity
17415;DHT22;8825;48.086;16.426;2023-01-10T00:01:13;9.30;70.30
17415;DHT22;8825;48.086;16.426;2023-01-10T00:03:40;9.30;70.50
17415;DHT22;8825;48.086;16.426;2023-01-10T00:06:08;9.30;70.60
17415;DHT22;8825;48.086;16.426;2023-01-10T00:08:35;9.30;70.70
17415;DHT22;8825;48.086;16.426;2023-01-10T00:11:03;9.20;70.80
17415;DHT22;8825;48.086;16.426;2023-01-10T00:13:32;9.20;71.00
17415;DHT22;8825;48.086;16.426;2023-01-10T00:16:06;9.20;71.10
17415;DHT22;8825;48.086;16.426;2023-01-10T00:18:30;9.20;71.10
17415;DHT22;8825;48.086;16.426;2023-01-10T00:20:57;9.20;71.20
17415;DHT22;8825;48.086;16.426;2023-01-10T00:23:25;9.20;71.30
17415;DHT22;8825;48.086;16.426;2023-01-10T00:25:53;9.10;71.40
17415;DHT22;8825;48.086;16.426;2023-01-10T00:28:21;9.10;71.50
17415;DHT22;8825;48.086;16.426;2023-01-10T00:30:51;9.10;71.50
17415;DHT22;8825;48.086;16.426;2023-01-10T00:33:23;9.10;71.50
17415;DHT22;8825;48.086;16.426;2023-01-10T00:38:32;9.10;71.30
17415;DHT22;8825;48.086;16.426;2023-01-10T00:41:00;9.10;71.30
17415;DHT22;8825;48.086;16.426;2023-01-10T00:43:28;9.10;71.30
17415;DHT22;8825;48.086;16.426;2023-01-10T00:46:13;9.10;71.20
17415;DHT22;8825;48.086;16.426;2023-01-10T00:48:41;9.10;71.30
17415;DHT22;8825;48.086;16.426;2023-01-10T00:51:08;9.00;71.30
17415;DHT22;8825;48.086;16.426;2023-01-10T00:53:36;9.00;71.40
17415;DHT22;8825;48.086;16.426;2023-01-10T00:56:03;9.00;71.60
17415;DHT22;8825;48.086;16.426;2023-01-10T00:58:31;9.00;71.50
17415;DHT22;8825;48.086;16.426;2023-01-10T01:00:59;9.00;71.50
17415;DHT22;8825;48.086;16.426;2023-01-10T01:03:27;9.00;71.50
17415;DHT22;8825;48.086;16.426;2023-01-10T01:05:54;9.00;71.50
17415;DHT22;8825;48.086;16.426;2023-01-10T01:08:22;9.00;71.40
17415;DHT22;8825;48.086;16.426;2023-01-10T01:10:49;9.00;71.90
17415;DHT22;8825;48.086;16.426;2023-01-10T01:13:19;9.00;71.50
17415;DHT22;8825;48.086;16.426;2023-01-10T01:15:47;9.00;71.50
17415;DHT22;8825;48.086;16.426;2023-01-10T01:18:18;9.00;71.50
17415;DHT22;8825;48.086;16.426;2023-01-10T01:20:47;9.00;71.70
17415;DHT22;8825;48.086;16.426;2023-01-10T01:23:16;8.90;71.70
17415;DHT22;8825;48.086;16.426;2023-01-10T01:25:43;8.90;71.70
17415;DHT22;8825;48.086;16.426;2023-01-10T01:28:13;8.90;71.80
17415;DHT22;8825;48.086;16.426;2023-01-10T01:30:41;8.90;71.80
17415;DHT22;8825;48.086;16.426;2023-01-10T01:33:09;8.80;72.00
17415;DHT22;8825;48.086;16.426;2023-01-10T01:35:36;8.80;72.20
17415;DHT22;8825;48.086;16.426;2023-01-10T01:38:04;8.80;72.30
17415;DHT22;8825;48.086;16.426;2023-01-10T01:40:31;8.80;72.40
17415;DHT22;8825;48.086;16.426;2023-01-10T01:42:59;8.70;72.30
17415;DHT22;8825;48.086;16.426;2023-01-10T01:50:58;8.70;72.10
17415;DHT22;8825;48.086;16.426;2023-01-10T01:56:10;8.70;72.30
17415;DHT22;8825;48.086;16.426;2023-01-10T01:58:43;8.70;72.30
17415;DHT22;8825;48.086;16.426;2023-01-10T02:01:12;8.70;72.40
17415;DHT22;8825;48.086;16.426;2023-01-10T02:03:43;8.70;72.40
17415;DHT22;8825;48.086;16.426;2023-01-10T02:06:11;8.70;72.40
17415;DHT22;8825;48.086;16.426;2023-01-10T02:08:43;8.70;72.50
17415;DHT22;8825;48.086;16.426;2023-01-10T02:11:11;8.70;72.60
17415;DHT22;8825;48.086;16.426;2023-01-10T02:13:43;8.80;72.60
17415;DHT22;8825;48.086;16.426;2023-01-10T02:16:11;8.80;72.60
17415;DHT22;8825;48.086;16.426;2023-01-10T02:18:40;8.80;72.50
17415;DHT22;8825;48.086;16.426;2023-01-10T02:26:59;8.80;72.30
17415;DHT22;8825;48.086;16.426;2023-01-10T02:32:52;8.70;72.40
17415;DHT22;8825;48.086;16.426;2023-01-10T02:43:54;8.60;72.50
17415;DHT22;8825;48.086;16.426;2023-01-10T02:46:24;8.60;72.60
17415;DHT22;8825;48.086;16.426;2023-01-10T02:48:53;8.60;72.70
17415;DHT22;8825;48.086;16.426;2023-01-10T02:51:24;8.60;72.70
17415;DHT22;8825;48.086;16.426;2023-01-10T02:54:15;8.60;72.70
17415;DHT22;8825;48.086;16.426;2023-01-10T03:06:06;8.60;73.70
17415;DHT22;8825;48.086;16.426;2023-01-10T03:11:23;8.60;73.00
17415;DHT22;8825;48.086;16.426;2023-01-10T03:13:56;8.50;73.20
17415;DHT22;8825;48.086;16.426;2023-01-10T03:16:26;8.50;73.40
17415;DHT22;8825;48.086;16.426;2023-01-10T03:19:02;8.50;73.60
17415;DHT22;8825;48.086;16.426;2023-01-10T03:21:32;8.50;73.60
17415;DHT22;8825;48.086;16.426;2023-01-10T03:24:06;8.50;73.70
17415;DHT22;8825;48.086;16.426;2023-01-10T03:26:58;8.50;73.80
17415;DHT22;8825;48.086;16.426;2023-01-10T03:29:06;8.50;74.30
17415;DHT22;8825;48.086;16.426;2023-01-10T03:31:44;8.50;73.80
17415;DHT22;8825;48.086;16.426;2023-01-10T03:34:12;8.50;74.00
17415;DHT22;8825;48.086;16.426;2023-01-10T03:36:47;8.50;74.10
17415;DHT22;8825;48.086;16.426;2023-01-10T03:42:01;8.50;74.10
17415;DHT22;8825;48.086;16.426;2023-01-10T03:50:14;8.40;74.30
17415;DHT22;8825;48.086;16.426;2023-01-10T03:52:42;8.40;74.50
17415;DHT22;8825;48.086;16.426;2023-01-10T03:55:12;8.40;74.60
17415;DHT22;8825;48.086;16.426;2023-01-10T03:57:42;8.40;74.70
17415;DHT22;8825;48.086;16.426;2023-01-10T04:00:15;8.40;74.80
17415;DHT22;8825;48.086;16.426;2023-01-10T04:02:43;8.30;74.90
17415;DHT22;8825;48.086;16.426;2023-01-10T04:05:30;8.30;74.90
17415;DHT22;8825;48.086;16.426;2023-01-10T04:07:57;8.30;74.50
17415;DHT22;8825;48.086;16.426;2023-01-10T04:10:25;8.30;75.10
17415;DHT22;8825;48.086;16.426;2023-01-10T04:12:54;8.30;75.20
17415;DHT22;8825;48.086;16.426;2023-01-10T04:15:23;8.30;75.30
17415;DHT22;8825;48.086;16.426;2023-01-10T04:17:51;8.30;75.30
17415;DHT22;8825;48.086;16.426;2023-01-10T04:20:18;8.30;75.40
17415;DHT22;8825;48.086;16.426;2023-01-10T04:22:46;8.30;75.40
17415;DHT22;8825;48.086;16.426;2023-01-10T04:25:15;8.30;75.60
17415;DHT22;8825;48.086;16.426;2023-01-10T04:27:43;8.30;75.60
17415;DHT22;8825;48.086;16.426;2023-01-10T04:30:10;8.30;75.60
17415;DHT22;8825;48.086;16.426;2023-01-10T04:32:38;8.30;75.70
17415;DHT22;8825;48.086;16.426;2023-01-10T04:35:06;8.30;75.80
17415;DHT22;8825;48.086;16.426;2023-01-10T04:37:34;8.30;75.90
17415;DHT22;8825;48.086;16.426;2023-01-10T04:40:03;8.30;75.90
17415;DHT22;8825;48.086;16.426;2023-01-10T04:42:31;8.30;76.00
17415;DHT22;8825;48.086;16.426;2023-01-10T04:45:18;8.30;76.00
17415;DHT22;8825;48.086;16.426;2023-01-10T04:47:50;8.30;75.60
17415;DHT22;8825;48.086;16.426;2023-01-10T04:50:20;8.30;76.20
17415;DHT22;8825;48.086;16.426;2023-01-10T04:52:48;8.30;76.30
17415;DHT22;8825;48.086;16.426;2023-01-10T04:55:16;8.30;77.10
17415;DHT22;8825;48.086;16.426;2023-01-10T04:57:43;8.30;76.40
17415;DHT22;8825;48.086;16.426;2023-01-10T05:00:11;8.30;76.60
17415;DHT22;8825;48.086;16.426;2023-01-10T05:02:39;8.20;76.50
17415;DHT22;8825;48.086;16.426;2023-01-10T05:05:09;8.20;76.00
17415;DHT22;8825;48.086;16.426;2023-01-10T05:07:37;8.30;76.60
17415;DHT22;8825;48.086;16.426;2023-01-10T05:10:05;8.30;76.70
17415;DHT22;8825;48.086;16.426;2023-01-10T05:12:34;8.30;76.70
17415;DHT22;8825;48.086;16.426;2023-01-10T05:15:02;8.30;76.80
17415;DHT22;8825;48.086;16.426;2023-01-10T05:17:29;8.30;77.10
17415;DHT22;8825;48.086;16.426;2023-01-10T05:19:57;8.30;77.00
17415;DHT22;8825;48.086;16.426;2023-01-10T05:22:24;8.30;77.10
17415;DHT22;8825;48.086;16.426;2023-01-10T05:24:52;8.30;77.10
17415;DHT22;8825;48.086;16.426;2023-01-10T05:27:19;8.30;77.10
17415;DHT22;8825;48.086;16.426;2023-01-10T05:29:47;8.30;77.10
17415;DHT22;8825;48.086;16.426;2023-01-10T05:32:15;8.30;77.10
17415;DHT22;8825;48.086;16.426;2023-01-10T05:34:42;8.20;77.00
17415;DHT22;8825;48.086;16.426;2023-01-10T05:37:10;8.20;77.00
17415;DHT22;8825;48.086;16.426;2023-01-10T05:39:37;8.20;77.00
17415;DHT22;8825;48.086;16.426;2023-01-10T05:42:06;8.30;77.10
17415;DHT22;8825;48.086;16.426;2023-01-10T05:44:54;8.30;77.10
17415;DHT22;8825;48.086;16.426;2023-01-10T05:47:22;8.30;76.60
17415;DHT22;8825;48.086;16.426;2023-01-10T05:49:50;8.30;76.80
17415;DHT22;8825;48.086;16.426;2023-01-10T05:52:18;8.30;77.50
17415;DHT22;8825;48.086;16.426;2023-01-10T05:54:45;8.30;76.60
17415;DHT22;8825;48.086;16.426;2023-01-10T05:57:13;8.40;76.60
17415;DHT22;8825;48.086;16.426;2023-01-10T05:59:41;8.40;76.60
17415;DHT22;8825;48.086;16.426;2023-01-10T06:02:08;8.30;76.40
17415;DHT22;8825;48.086;16.426;2023-01-10T06:04:36;8.40;76.40
17415;DHT22;8825;48.086;16.426;2023-01-10T06:07:03;8.30;76.40
17415;DHT22;8825;48.086;16.426;2023-01-10T06:09:31;8.30;76.30
17415;DHT22;8825;48.086;16.426;2023-01-10T06:11:58;8.30;76.30
17415;DHT22;8825;48.086;16.426;2023-01-10T06:14:26;8.30;76.40
17415;DHT22;8825;48.086;16.426;2023-01-10T06:16:53;8.30;76.40
17415;DHT22;8825;48.086;16.426;2023-01-10T06:19:21;8.30;76.50
17415;DHT22;8825;48.086;16.426;2023-01-10T06:21:48;8.40;76.50
17415;DHT22;8825;48.086;16.426;2023-01-10T06:24:16;8.40;76.40
17415;DHT22;8825;48.086;16.426;2023-01-10T06:26:44;8.30;76.40
17415;DHT22;8825;48.086;16.426;2023-01-10T06:29:11;8.30;76.40
17415;DHT22;8825;48.086;16.426;2023-01-10T06:31:39;8.30;76.50
17415;DHT22;8825;48.086;16.426;2023-01-10T06:34:06;8.30;76.70
17415;DHT22;8825;48.086;16.426;2023-01-10T06:36:34;8.30;76.70
17415;DHT22;8825;48.086;16.426;2023-01-10T06:39:01;8.30;76.70
17415;DHT22;8825;48.086;16.426;2023-01-10T06:41:29;8.30;76.70
17415;DHT22;8825;48.086;16.426;2023-01-10T06:43:56;8.30;76.80
17415;DHT22;8825;48.086;16.426;2023-01-10T06:46:24;8.30;76.80
17415;DHT22;8825;48.086;16.426;2023-01-10T06:48:51;8.30;76.60
17415;DHT22;8825;48.086;16.426;2023-01-10T06:51:19;8.30;76.60
17415;DHT22;8825;48.086;16.426;2023-01-10T06:53:47;8.30;76.60
17415;DHT22;8825;48.086;16.426;2023-01-10T06:56:14;8.30;76.60
17415;DHT22;8825;48.086;16.426;2023-01-10T06:58:41;8.30;76.50
17415;DHT22;8825;48.086;16.426;2023-01-10T07:01:14;8.30;76.50
17415;DHT22;8825;48.086;16.426;2023-01-10T07:03:42;8.20;76.40
17415;DHT22;8825;48.086;16.426;2023-01-10T07:06:09;8.20;76.40
17415;DHT22;8825;48.086;16.426;2023-01-10T07:08:38;8.30;76.50
17415;DHT22;8825;48.086;16.426;2023-01-10T07:11:07;8.30;76.40
17415;DHT22;8825;48.086;16.426;2023-01-10T07:13:54;8.30;76.40
17415;DHT22;8825;48.086;16.426;2023-01-10T07:16:22;8.30;75.90
17415;DHT22;8825;48.086;16.426;2023-01-10T07:18:49;8.30;76.20
17415;DHT22;8825;48.086;16.426;2023-01-10T07:21:17;8.30;76.00
17415;DHT22;8825;48.086;16.426;2023-01-10T07:23:48;8.30;76.00
17415;DHT22;8825;48.086;16.426;2023-01-10T07:29:05;8.40;75.90
17415;DHT22;8825;48.086;16.426;2023-01-10T07:31:32;8.30;75.80
17415;DHT22;8825;48.086;16.426;2023-01-10T07:34:00;8.40;75.80
17415;DHT22;8825;48.086;16.426;2023-01-10T07:36:27;8.40;75.80
17415;DHT22;8825;48.086;16.426;2023-01-10T07:38:55;8.40;75.60
17415;DHT22;8825;48.086;16.426;2023-01-10T07:41:22;8.40;75.50
17415;DHT22;8825;48.086;16.426;2023-01-10T07:43:50;8.40;75.50
17415;DHT22;8825;48.086;16.426;2023-01-10T07:46:17;8.50;75.30
17415;DHT22;8825;48.086;16.426;2023-01-10T07:48:45;8.50;75.00
17415;DHT22;8825;48.086;16.426;2023-01-10T07:51:14;8.50;74.90
17415;DHT22;8825;48.086;16.426;2023-01-10T07:53:42;8.50;74.70
17415;DHT22;8825;48.086;16.426;2023-01-10T07:56:09;8.50;74.60
17415;DHT22;8825;48.086;16.426;2023-01-10T07:58:37;8.50;74.50
17415;DHT22;8825;48.086;16.426;2023-01-10T08:01:05;8.50;74.50
17415;DHT22;8825;48.086;16.426;2023-01-10T08:03:33;8.60;74.50
17415;DHT22;8825;48.086;16.426;2023-01-10T08:06:03;8.60;74.50
17415;DHT22;8825;48.086;16.426;2023-01-10T08:08:32;8.60;74.50
17415;DHT22;8825;48.086;16.426;2023-01-10T08:11:00;8.60;74.40
17415;DHT22;8825;48.086;16.426;2023-01-10T08:13:29;8.60;74.40
17415;DHT22;8825;48.086;16.426;2023-01-10T08:15:58;8.60;74.40
17415;DHT22;8825;48.086;16.426;2023-01-10T08:18:25;8.70;74.30
17415;DHT22;8825;48.086;16.426;2023-01-10T08:20:54;8.70;74.40
17415;DHT22;8825;48.086;16.426;2023-01-10T08:23:21;8.70;74.40
17415;DHT22;8825;48.086;16.426;2023-01-10T08:25:49;8.70;74.30
17415;DHT22;8825;48.086;16.426;2023-01-10T08:28:17;8.70;74.40
17415;DHT22;8825;48.086;16.426;2023-01-10T08:30:44;8.70;74.40
17415;DHT22;8825;48.086;16.426;2023-01-10T08:33:12;8.70;74.30
17415;DHT22;8825;48.086;16.426;2023-01-10T08:35:41;8.70;74.30
17415;DHT22;8825;48.086;16.426;2023-01-10T08:38:10;8.70;74.30
17415;DHT22;8825;48.086;16.426;2023-01-10T08:40:38;8.80;74.40
17415;DHT22;8825;48.086;16.426;2023-01-10T08:43:08;8.80;74.30
17415;DHT22;8825;48.086;16.426;2023-01-10T08:45:36;8.80;74.10
17415;DHT22;8825;48.086;16.426;2023-01-10T08:48:05;8.80;73.90
17415;DHT22;8825;48.086;16.426;2023-01-10T08:50:35;8.80;73.90
17415;DHT22;8825;48.086;16.426;2023-01-10T08:53:02;8.80;73.50
17415;DHT22;8825;48.086;16.426;2023-01-10T08:55:30;8.80;73.30
17415;DHT22;8825;48.086;16.426;2023-01-10T08:57:59;8.80;73.20
17415;DHT22;8825;48.086;16.426;2023-01-10T09:00:28;8.80;73.20
17415;DHT22;8825;48.086;16.426;2023-01-10T09:02:56;8.90;73.30
17415;DHT22;8825;48.086;16.426;2023-01-10T09:05:24;8.90;73.10
17415;DHT22;8825;48.086;16.426;2023-01-10T09:07:51;8.90;72.80
17415;DHT22;8825;48.086;16.426;2023-01-10T09:10:19;8.90;72.50
17415;DHT22;8825;48.086;16.426;2023-01-10T09:12:47;9.00;72.40
17415;DHT22;8825;48.086;16.426;2023-01-10T09:15:25;9.00;72.30
17415;DHT22;8825;48.086;16.426;2023-01-10T09:17:55;9.00;71.80
17415;DHT22;8825;48.086;16.426;2023-01-10T09:20:24;9.00;71.60
17415;DHT22;8825;48.086;16.426;2023-01-10T09:22:52;9.10;71.80
17415;DHT22;8825;48.086;16.426;2023-01-10T09:25:20;9.10;71.40
17415;DHT22;8825;48.086;16.426;2023-01-10T09:27:54;9.10;70.90
17415;DHT22;8825;48.086;16.426;2023-01-10T09:30:17;9.10;70.90
17415;DHT22;8825;48.086;16.426;2023-01-10T09:32:49;9.10;70.70
17415;DHT22;8825;48.086;16.426;2023-01-10T09:35:15;9.10;70.30
17415;DHT22;8825;48.086;16.426;2023-01-10T09:37:42;9.10;70.10
17415;DHT22;8825;48.086;16.426;2023-01-10T09:48:48;9.20;69.70
17415;DHT22;8825;48.086;16.426;2023-01-10T09:51:38;9.20;69.60
17415;DHT22;8825;48.086;16.426;2023-01-10T09:54:18;9.20;69.50
17415;DHT22;8825;48.086;16.426;2023-01-10T09:56:46;9.20;69.30
17415;DHT22;8825;48.086;16.426;2023-01-10T09:59:20;9.20;69.20
17415;DHT22;8825;48.086;16.426;2023-01-10T10:01:52;9.30;69.10
17415;DHT22;8825;48.086;16.426;2023-01-10T10:04:26;9.30;69.00
17415;DHT22;8825;48.086;16.426;2023-01-10T10:06:55;9.30;68.80
17415;DHT22;8825;48.086;16.426;2023-01-10T10:09:25;9.30;68.60
17415;DHT22;8825;48.086;16.426;2023-01-10T10:11:59;9.40;68.30
17415;DHT22;8825;48.086;16.426;2023-01-10T10:31:15;9.60;67.30
17415;DHT22;8825;48.086;16.426;2023-01-10T10:34:16;9.60;67.20
17415;DHT22;8825;48.086;16.426;2023-01-10T10:39:16;9.60;67.30
17415;DHT22;8825;48.086;16.426;2023-01-10T10:41:45;9.70;67.30
17415;DHT22;8825;48.086;16.426;2023-01-10T10:46:53;9.70;66.30
17415;DHT22;8825;48.086;16.426;2023-01-10T10:49:43;9.70;66.30
17415;DHT22;8825;48.086;16.426;2023-01-10T10:52:32;9.80;66.20
17415;DHT22;8825;48.086;16.426;2023-01-10T10:55:02;9.80;65.70
17415;DHT22;8825;48.086;16.426;2023-01-10T10:57:32;9.80;65.80
17415;DHT22;8825;48.086;16.426;2023-01-10T11:00:03;9.90;65.10
17415;DHT22;8825;48.086;16.426;2023-01-10T11:02:38;9.90;65.60
17415;DHT22;8825;48.086;16.426;2023-01-10T11:05:03;9.90;65.80
17415;DHT22;8825;48.086;16.426;2023-01-10T11:07:34;10.00;65.70
17415;DHT22;8825;48.086;16.426;2023-01-10T11:10:04;10.00;65.60
17415;DHT22;8825;48.086;16.426;2023-01-10T11:12:51;10.00;65.30
17415;DHT22;8825;48.086;16.426;2023-01-10T11:15:39;10.10;64.80
17415;DHT22;8825;48.086;16.426;2023-01-10T11:18:15;10.10;64.70
17415;DHT22;8825;48.086;16.426;2023-01-10T11:20:48;10.10;64.60
17415;DHT22;8825;48.086;16.426;2023-01-10T11:23:26;10.10;64.50
17415;DHT22;8825;48.086;16.426;2023-01-10T11:25:53;10.10;64.20
17415;DHT22;8825;48.086;16.426;2023-01-10T11:28:23;10.20;63.90
17415;DHT22;8825;48.086;16.426;2023-01-10T11:30:51;10.20;63.50
17415;DHT22;8825;48.086;16.426;2023-01-10T11:33:21;10.20;63.50
17415;DHT22;8825;48.086;16.426;2023-01-10T11:38:28;10.30;63.00
17415;DHT22;8825;48.086;16.426;2023-01-10T11:41:02;10.30;62.60
17415;DHT22;8825;48.086;16.426;2023-01-10T11:43:35;10.40;62.20
17415;DHT22;8825;48.086;16.426;2023-01-10T11:46:20;10.40;62.50
17415;DHT22;8825;48.086;16.426;2023-01-10T11:49:04;10.40;62.30
17415;DHT22;8825;48.086;16.426;2023-01-10T11:51:44;10.40;62.00
17415;DHT22;8825;48.086;16.426;2023-01-10T11:54:32;10.50;62.20
17415;DHT22;8825;48.086;16.426;2023-01-10T11:57:07;10.50;62.10
17415;DHT22;8825;48.086;16.426;2023-01-10T11:59:36;10.50;61.80
17415;DHT22;8825;48.086;16.426;2023-01-10T12:02:16;10.50;61.70
17415;DHT22;8825;48.086;16.426;2023-01-10T12:04:43;10.60;61.40
17415;DHT22;8825;48.086;16.426;2023-01-10T12:07:13;10.60;61.50
17415;DHT22;8825;48.086;16.426;2023-01-10T12:09:55;10.60;60.80
17415;DHT22;8825;48.086;16.426;2023-01-10T12:12:28;10.60;61.00
17415;DHT22;8825;48.086;16.426;2023-01-10T12:14:58;10.60;60.20
17415;DHT22;8825;48.086;16.426;2023-01-10T12:17:30;10.70;60.70
17415;DHT22;8825;48.086;16.426;2023-01-10T12:20:00;10.70;59.90
17415;DHT22;8825;48.086;16.426;2023-01-10T12:22:34;10.70;59.90
17415;DHT22;8825;48.086;16.426;2023-01-10T12:25:14;10.80;59.90
17415;DHT22;8825;48.086;16.426;2023-01-10T12:27:35;10.80;59.40
17415;DHT22;8825;48.086;16.426;2023-01-10T12:30:10;10.80;59.30
17415;DHT22;8825;48.086;16.426;2023-01-10T12:32:41;10.80;59.10
17415;DHT22;8825;48.086;16.426;2023-01-10T12:35:33;10.80;58.60
17415;DHT22;8825;48.086;16.426;2023-01-10T12:40:54;10.70;57.80
17415;DHT22;8825;48.086;16.426;2023-01-10T12:43:28;10.60;57.80
17415;DHT22;8825;48.086;16.426;2023-01-10T12:46:19;10.60;58.00
17415;DHT22;8825;48.086;16.426;2023-01-10T12:49:05;10.50;58.00
17415;DHT22;8825;48.086;16.426;2023-01-10T12:51:33;10.60;58.10
17415;DHT22;8825;48.086;16.426;2023-01-10T12:54:02;10.50;58.00
17415;DHT22;8825;48.086;16.426;2023-01-10T12:56:31;10.50;57.60
17415;DHT22;8825;48.086;16.426;2023-01-10T12:59:11;10.60;57.80
17415;DHT22;8825;48.086;16.426;2023-01-10T13:01:36;10.60;58.00
17415;DHT22;8825;48.086;16.426;2023-01-10T13:04:13;10.60;58.00
17415;DHT22;8825;48.086;16.426;2023-01-10T13:06:43;10.60;58.10
17415;DHT22;8825;48.086;16.426;2023-01-10T13:09:19;10.70;58.00
17415;DHT22;8825;48.086;16.426;2023-01-10T13:11:58;10.70;57.70
17415;DHT22;8825;48.086;16.426;2023-01-10T13:14:28;10.70;57.50
17415;DHT22;8825;48.086;16.426;2023-01-10T13:19:43;10.80;56.70
17415;DHT22;8825;48.086;16.426;2023-01-10T13:22:21;10.80;56.40
17415;DHT22;8825;48.086;16.426;2023-01-10T13:24:57;10.80;56.20
17415;DHT22;8825;48.086;16.426;2023-01-10T13:27:29;10.90;56.10
17415;DHT22;8825;48.086;16.426;2023-01-10T13:29:56;10.90;56.50
17415;DHT22;8825;48.086;16.426;2023-01-10T13:32:28;10.90;56.10
17415;DHT22;8825;48.086;16.426;2023-01-10T13:37:40;10.90;56.10
17415;DHT22;8825;48.086;16.426;2023-01-10T13:40:18;11.00;56.40
17415;DHT22;8825;48.086;16.426;2023-01-10T13:42:38;11.00;56.50
17415;DHT22;8825;48.086;16.426;2023-01-10T13:45:27;11.00;56.10
17415;DHT22;8825;48.086;16.426;2023-01-10T13:47:57;10.90;55.80
17415;DHT22;8825;48.086;16.426;2023-01-10T14:00:51;10.80;56.40
17415;DHT22;8825;48.086;16.426;2023-01-10T14:06:31;10.70;56.90
17415;DHT22;8825;48.086;16.426;2023-01-10T14:09:27;10.60;56.50
17415;DHT22;8825;48.086;16.426;2023-01-10T14:14:17;10.60;56.70
17415;DHT22;8825;48.086;16.426;2023-01-10T14:16:45;10.50;56.90
17415;DHT22;8825;48.086;16.426;2023-01-10T14:19:28;10.50;57.10
17415;DHT22;8825;48.086;16.426;2023-01-10T14:21:59;10.50;57.10
17415;DHT22;8825;48.086;16.426;2023-01-10T14:24:39;10.50;57.10
17415;DHT22;8825;48.086;16.426;2023-01-10T14:27:14;10.50;57.30
17415;DHT22;8825;48.086;16.426;2023-01-10T14:29:52;10.40;57.60
17415;DHT22;8825;48.086;16.426;2023-01-10T14:32:29;10.40;57.80
17415;DHT22;8825;48.086;16.426;2023-01-10T14:34:55;10.40;57.80
17415;DHT22;8825;48.086;16.426;2023-01-10T14:37:44;10.40;58.10
17415;DHT22;8825;48.086;16.426;2023-01-10T14:40:33;10.40;58.10
17415;DHT22;8825;48.086;16.426;2023-01-10T14:43:00;10.30;58.00
17415;DHT22;8825;48.086;16.426;2023-01-10T14:45:53;10.30;58.10
17415;DHT22;8825;48.086;16.426;2023-01-10T14:48:25;10.30;57.90
17415;DHT22;8825;48.086;16.426;2023-01-10T14:53:40;10.30;58.20
17415;DHT22;8825;48.086;16.426;2023-01-10T14:56:27;10.30;58.60
17415;DHT22;8825;48.086;16.426;2023-01-10T14:58:50;10.20;58.10
17415;DHT22;8825;48.086;16.426;2023-01-10T15:01:21;10.20;58.20
17415;DHT22;8825;48.086;16.426;2023-01-10T15:03:49;10.20;58.10
17415;DHT22;8825;48.086;16.426;2023-01-10T15:06:17;10.20;57.70
17415;DHT22;8825;48.086;16.426;2023-01-10T15:08:45;10.20;57.90
17415;DHT22;8825;48.086;16.426;2023-01-10T15:11:13;10.20;58.40
17415;DHT22;8825;48.086;16.426;2023-01-10T15:13:48;10.20;57.60
17415;DHT22;8825;48.086;16.426;2023-01-10T15:19:02;10.10;58.10
17415;DHT22;8825;48.086;16.426;2023-01-10T15:21:29;10.10;58.30
17415;DHT22;8825;48.086;16.426;2023-01-10T15:23:57;10.10;58.60
17415;DHT22;8825;48.086;16.426;2023-01-10T15:26:27;10.00;58.60
17415;DHT22;8825;48.086;16.426;2023-01-10T15:29:10;10.00;58.70
17415;DHT22;8825;48.086;16.426;2023-01-10T15:31:39;10.00;58.80
17415;DHT22;8825;48.086;16.426;2023-01-10T15:34:18;10.10;58.80
17415;DHT22;8825;48.086;16.426;2023-01-10T15:36:54;10.00;58.90
17415;DHT22;8825;48.086;16.426;2023-01-10T15:39:25;10.10;58.80
17415;DHT22;8825;48.086;16.426;2023-01-10T15:42:02;10.00;58.90
17415;DHT22;8825;48.086;16.426;2023-01-10T15:44:49;10.00;59.10
17415;DHT22;8825;48.086;16.426;2023-01-10T15:47:38;10.00;59.20
17415;DHT22;8825;48.086;16.426;2023-01-10T15:50:26;10.00;59.40
17415;DHT22;8825;48.086;16.426;2023-01-10T15:53:00;9.90;59.50
17415;DHT22;8825;48.086;16.426;2023-01-10T15:55:36;9.90;59.70
17415;DHT22;8825;48.086;16.426;2023-01-10T15:58:21;9.90;59.80
17415;DHT22;8825;48.086;16.426;2023-01-10T16:00:49;9.90;60.00
17415;DHT22;8825;48.086;16.426;2023-01-10T16:03:34;9.90;60.30
17415;DHT22;8825;48.086;16.426;2023-01-10T16:06:03;9.80;60.40
17415;DHT22;8825;48.086;16.426;2023-01-10T16:08:34;9.80;60.50
17415;DHT22;8825;48.086;16.426;2023-01-10T16:11:06;9.80;60.40
17415;DHT22;8825;48.086;16.426;2023-01-10T16:13:34;9.90;61.00
17415;DHT22;8825;48.086;16.426;2023-01-10T16:16:07;9.90;60.60
17415;DHT22;8825;48.086;16.426;2023-01-10T16:18:33;9.90;60.70
17415;DHT22;8825;48.086;16.426;2023-01-10T16:21:02;9.90;60.70
17415;DHT22;8825;48.086;16.426;2023-01-10T16:23:33;9.90;60.60
17415;DHT22;8825;48.086;16.426;2023-01-10T16:26:03;9.90;60.40
17415;DHT22;8825;48.086;16.426;2023-01-10T16:28:32;9.90;60.50
17415;DHT22;8825;48.086;16.426;2023-01-10T16:31:03;9.90;60.50
17415;DHT22;8825;48.086;16.426;2023-01-10T16:33:50;9.90;60.50
17415;DHT22;8825;48.086;16.426;2023-01-10T16:36:18;9.90;60.50
17415;DHT22;8825;48.086;16.426;2023-01-10T16:38:46;9.90;60.70
17415;DHT22;8825;48.086;16.426;2023-01-10T16:41:14;9.90;60.80
17415;DHT22;8825;48.086;16.426;2023-01-10T16:44:00;9.90;61.00
17415;DHT22;8825;48.086;16.426;2023-01-10T16:46:28;9.90;61.00
17415;DHT22;8825;48.086;16.426;2023-01-10T16:48:56;9.80;61.00
17415;DHT22;8825;48.086;16.426;2023-01-10T16:51:26;9.90;61.20
17415;DHT22;8825;48.086;16.426;2023-01-10T16:53:54;9.90;61.10
17415;DHT22;8825;48.086;16.426;2023-01-10T16:56:24;9.80;61.10
17415;DHT22;8825;48.086;16.426;2023-01-10T16:58:53;9.80;60.70
17415;DHT22;8825;48.086;16.426;2023-01-10T17:01:28;9.90;60.60
17415;DHT22;8825;48.086;16.426;2023-01-10T17:03:54;9.80;60.70
17415;DHT22;8825;48.086;16.426;2023-01-10T17:06:22;9.80;60.60
17415;DHT22;8825;48.086;16.426;2023-01-10T17:08:49;9.90;60.30
17415;DHT22;8825;48.086;16.426;2023-01-10T17:11:19;9.90;60.20
17415;DHT22;8825;48.086;16.426;2023-01-10T17:14:10;9.90;60.20
17415;DHT22;8825;48.086;16.426;2023-01-10T17:16:37;9.90;60.20
17415;DHT22;8825;48.086;16.426;2023-01-10T17:19:06;9.80;60.10
17415;DHT22;8825;48.086;16.426;2023-01-10T17:21:34;9.80;59.90
17415;DHT22;8825;48.086;16.426;2023-01-10T17:24:03;9.80;59.90
17415;DHT22;8825;48.086;16.426;2023-01-10T17:26:30;9.80;59.90
17415;DHT22;8825;48.086;16.426;2023-01-10T17:28:58;9.80;59.80
17415;DHT22;8825;48.086;16.426;2023-01-10T17:31:25;9.80;59.80
17415;DHT22;8825;48.086;16.426;2023-01-10T17:33:53;9.80;59.80
17415;DHT22;8825;48.086;16.426;2023-01-10T17:36:20;9.80;59.90
17415;DHT22;8825;48.086;16.426;2023-01-10T17:38:49;9.80;59.80
17415;DHT22;8825;48.086;16.426;2023-01-10T17:41:17;9.80;60.70
17415;DHT22;8825;48.086;16.426;2023-01-10T17:43:44;9.80;59.90
17415;DHT22;8825;48.086;16.426;2023-01-10T17:46:12;9.80;60.00
17415;DHT22;8825;48.086;16.426;2023-01-10T17:48:42;9.70;60.00
17415;DHT22;8825;48.086;16.426;2023-01-10T17:51:10;9.70;60.30
17415;DHT22;8825;48.086;16.426;2023-01-10T17:53:39;9.70;60.50
17415;DHT22;8825;48.086;16.426;2023-01-10T17:56:07;9.70;60.50
17415;DHT22;8825;48.086;16.426;2023-01-10T17:58:35;9.70;60.50
17415;DHT22;8825;48.086;16.426;2023-01-10T18:01:02;9.70;60.40